Time;durP1;ratioP1;P1;durP2;ratioP2;P2;SDS_P1;SDS_P2;PMS_P1;PMS_P2;Temp;Humidity;BMP_temperature;BMP_pressure;BME280_temperature;BME280_humidity;BME280_pressure;Samples;Min_cycle;Max_cycle;Signal;HPM_P1;HPM_P2
2023/04/17 00:00:07;;;;;;;;;;;;;;;18.47;54.18;98291.44;2083550;28;19924;-50
2023/04/17 00:01:07;;;;;;;;;;;;;;;18.47;53.84;98297.66;2085829;28;19928;-49
2023/04/17 00:02:10;;;;;;;;;;;;;;;18.48;54.28;98293.09;2075495;28;20973;-48
2023/04/17 00:03:10;;;;;;;;;;;;;;;18.44;54.29;98292.72;2085972;28;20019;-49
2023/04/17 00:04:12;;;;;;;;;;;;;;;18.45;54.46;98290.84;2085156;28;19935;-50
2023/04/17 00:05:12;;;;;;;;;;;;;;;18.47;54.34;98289.59;2082711;28;20986;-48
2023/04/17 00:06:15;;;;;;;;;;;;;;;18.44;54.11;98292.72;2081579;28;19982;-47
2023/04/17 00:07:15;;;;;;;;;;;;;;;18.43;54.46;98285.66;2084539;28;19928;-51
2023/04/17 00:08:17;;;;;;;;;;;;;;;18.44;54.10;98284.66;2082003;28;20015;-48
2023/04/17 00:09:17;;;;;;;;;;;;;;;18.44;54.23;98290.03;2084360;28;20002;-47
2023/04/17 00:10:20;;;;;;;;;;;;;;;18.45;54.21;98291.66;2086236;28;19943;-47
2023/04/17 00:11:21;;;;;;;;;;;;;;;18.42;54.32;98288.56;2080441;28;19974;-47
2023/04/17 00:12:22;;;;;;;;;;;;;;;18.43;54.04;98285.66;2087420;28;20010;-48
2023/04/17 00:13:23;;;;;;;;;;;;;;;18.44;54.17;98292.72;2078503;28;20558;-48
2023/04/17 00:14:24;;;;;;;;;;;;;;;18.44;54.12;98287.34;2085671;28;19932;-48
2023/04/17 00:15:25;;;;;;;;;;;;;;;18.41;54.13;98292.28;2082466;28;19932;-48
2023/04/17 00:16:26;;;;;;;;;;;;;;;18.42;54.38;98289.41;2084943;28;20482;-48
2023/04/17 00:17:27;;;;;;;;;;;;;;;18.42;54.27;98286.72;2084566;28;19929;-48
2023/04/17 00:18:28;;;;;;;;;;;;;;;18.42;54.33;98288.56;2086811;28;19959;-49
2023/04/17 00:19:29;;;;;;;;;;;;;;;18.40;54.11;98288.78;2083712;28;19986;-49
2023/04/17 00:20:30;;;;;;;;;;;;;;;18.41;54.16;98287.72;2083468;28;20447;-47
2023/04/17 00:21:31;;;;;;;;;;;;;;;18.43;53.91;98284.84;2082623;28;20357;-46
2023/04/17 00:22:32;;;;;;;;;;;;;;;18.42;54.09;98284.03;2084548;28;19966;-48
2023/04/17 00:23:33;;;;;;;;;;;;;;;18.42;54.10;98286.72;2084608;28;19933;-49
2023/04/17 00:24:34;;;;;;;;;;;;;;;18.42;53.96;98286.72;2082479;28;19928;-47
2023/04/17 00:25:36;;;;;;;;;;;;;;;18.41;54.19;98284.22;2084741;28;19932;-48
2023/04/17 00:26:37;;;;;;;;;;;;;;;18.40;54.30;98283.41;2087417;28;19925;-48
2023/04/17 00:27:38;;;;;;;;;;;;;;;18.40;54.32;98275.34;2086380;28;21227;-48
2023/04/17 00:28:39;;;;;;;;;;;;;;;18.40;54.42;98275.34;2086334;28;19940;-48
2023/04/17 00:29:40;;;;;;;;;;;;;;;18.41;53.89;98276.16;2085331;28;20396;-48
2023/04/17 00:30:41;;;;;;;;;;;;;;;18.39;54.20;98284.44;2084608;28;19932;-49
2023/04/17 00:31:42;;;;;;;;;;;;;;;18.38;54.24;98276.59;2086524;28;20452;-48
2023/04/17 00:32:43;;;;;;;;;;;;;;;18.38;54.23;98276.59;2081466;28;19928;-48
2023/04/17 00:33:45;;;;;;;;;;;;;;;18.38;54.04;98276.59;2086089;28;19929;-48
2023/04/17 00:34:46;;;;;;;;;;;;;;;18.40;54.10;98275.34;2084897;28;19928;-47
2023/04/17 00:35:46;;;;;;;;;;;;;;;18.40;53.85;98275.34;2081243;28;19928;-51
2023/04/17 00:36:48;;;;;;;;;;;;;;;18.39;54.16;98272.91;2085802;28;19932;-49
2023/04/17 00:37:48;;;;;;;;;;;;;;;18.38;54.19;98277.41;2083520;28;20386;-51
2023/04/17 00:38:50;;;;;;;;;;;;;;;18.36;54.04;98279.50;2081434;28;19924;-49
2023/04/17 00:39:50;;;;;;;;;;;;;;;18.37;54.26;98277.63;2079425;28;20005;-49
2023/04/17 00:40:53;;;;;;;;;;;;;;;18.35;54.28;98277.84;2087164;28;20029;-49
2023/04/17 00:41:53;;;;;;;;;;;;;;;18.36;54.19;98282.19;2082539;28;19974;-49
2023/04/17 00:42:59;;;;;;;;;;;;;;;18.36;54.14;98268.75;2080513;28;19932;-47
2023/04/17 00:44:00;;;;;;;;;;;;;;;18.35;53.99;98272.47;2085671;28;19967;-48
2023/04/17 00:45:03;;;;;;;;;;;;;;;18.37;54.16;98278.47;2088482;28;19936;-48
2023/04/17 00:46:04;;;;;;;;;;;;;;;18.38;54.25;98277.41;2085579;28;19928;-48
2023/04/17 00:47:05;;;;;;;;;;;;;;;18.37;54.31;98277.63;2086208;28;19978;-47
2023/04/17 00:48:07;;;;;;;;;;;;;;;18.37;54.03;98274.94;2085173;28;19933;-47
2023/04/17 00:49:09;;;;;;;;;;;;;;;18.39;54.14;98279.09;2083938;28;19932;-47
2023/04/17 00:50:09;;;;;;;;;;;;;;;18.38;53.73;98266.66;2084717;28;20031;-46
2023/04/17 00:51:11;;;;;;;;;;;;;;;18.36;54.21;98271.44;2086620;28;19936;-46
2023/04/17 00:52:13;;;;;;;;;;;;;;;18.34;54.20;98280.75;2085820;28;19925;-47
2023/04/17 00:53:14;;;;;;;;;;;;;;;18.31;54.16;98276.63;2086092;28;19928;-47
2023/04/17 00:54:15;;;;;;;;;;;;;;;18.34;53.97;98272.69;2086221;28;20019;-47
2023/04/17 00:55:17;;;;;;;;;;;;;;;18.34;54.05;98270.84;2084296;28;19928;-50
2023/04/17 00:56:19;;;;;;;;;;;;;;;18.34;54.07;98268.16;2086954;28;22015;-49
2023/04/17 00:57:21;;;;;;;;;;;;;;;18.35;54.00;98267.09;2086106;28;19929;-49
2023/04/17 00:58:22;;;;;;;;;;;;;;;18.34;53.79;98270.00;2085578;28;19924;-48
2023/04/17 00:59:25;;;;;;;;;;;;;;;18.35;54.04;98267.09;2083665;28;20481;-49
2023/04/17 01:00:25;;;;;;;;;;;;;;;18.33;54.00;98266.50;2082680;28;19970;-51
2023/04/17 01:01:26;;;;;;;;;;;;;;;18.34;53.91;98264.63;2086093;28;19944;-47
2023/04/17 01:02:27;;;;;;;;;;;;;;;18.30;53.98;98265.06;2083864;28;19928;-50
2023/04/17 01:03:31;;;;;;;;;;;;;;;18.33;53.75;98266.50;2082756;28;20106;-48
2023/04/17 01:04:31;;;;;;;;;;;;;;;18.34;53.86;98259.28;2085651;28;20972;-46
2023/04/17 01:05:34;;;;;;;;;;;;;;;18.33;54.14;98268.34;2087604;28;19930;-50
2023/04/17 01:06:35;;;;;;;;;;;;;;;18.33;53.96;98257.59;2085928;28;19936;-46
2023/04/17 01:07:36;;;;;;;;;;;;;;;18.33;54.10;98258.44;2083962;28;19968;-49
2023/04/17 01:08:39;;;;;;;;;;;;;;;18.29;53.96;98257.22;2085530;28;20027;-49
2023/04/17 01:09:41;;;;;;;;;;;;;;;18.26;53.90;98258.44;2083543;28;20094;-49
2023/04/17 01:10:41;;;;;;;;;;;;;;;18.29;54.20;98246.47;2086024;28;19965;-46
2023/04/17 01:11:44;;;;;;;;;;;;;;;18.30;54.01;98248.09;2085170;28;19974;-49
2023/04/17 01:12:47;;;;;;;;;;;;;;;18.30;53.99;98250.78;2082579;28;19925;-48
2023/04/17 01:13:49;;;;;;;;;;;;;;;18.30;54.12;98242.75;2084880;28;19936;-48
2023/04/17 01:14:50;;;;;;;;;;;;;;;18.32;53.95;98246.03;2086859;28;19985;-46
2023/04/17 01:15:51;;;;;;;;;;;;;;;18.29;54.00;98243.78;2082141;28;20326;-47
2023/04/17 01:16:52;;;;;;;;;;;;;;;18.28;54.15;98244.84;2083093;28;19985;-50
2023/04/17 01:17:53;;;;;;;;;;;;;;;18.27;53.94;98238.59;2088081;28;20329;-49
2023/04/17 01:18:54;;;;;;;;;;;;;;;18.28;53.88;98250.19;2084210;28;19966;-48
2023/04/17 01:19:55;;;;;;;;;;;;;;;18.29;53.95;98243.78;2083208;28;20865;-47
2023/04/17 01:20:55;;;;;;;;;;;;;;;18.26;53.85;98241.53;2084817;28;20403;-48
2023/04/17 01:21:57;;;;;;;;;;;;;;;18.24;54.32;98243.59;2074653;28;20017;-48
2023/04/17 01:22:58;;;;;;;;;;;;;;;18.24;53.85;98240.91;2085128;28;19940;-52
2023/04/17 01:24:02;;;;;;;;;;;;;;;18.22;54.13;98253.69;2083860;28;19928;-49
2023/04/17 01:25:03;;;;;;;;;;;;;;;18.23;54.27;98240.09;2088035;28;19977;-49
2023/04/17 01:26:05;;;;;;;;;;;;;;;18.23;54.11;98248.13;2084346;28;19924;-50
2023/04/17 01:27:06;;;;;;;;;;;;;;;18.23;54.22;98241.94;2086931;28;19936;-47
2023/04/17 01:28:08;;;;;;;;;;;;;;;18.23;53.96;98247.31;2085523;28;20498;-51
2023/04/17 01:29:08;;;;;;;;;;;;;;;18.24;54.06;98248.94;2085320;28;19925;-52
2023/04/17 01:30:10;;;;;;;;;;;;;;;18.24;54.13;98244.41;2075345;28;19929;-51
2023/04/17 01:31:13;;;;;;;;;;;;;;;18.25;54.27;98250.63;2085177;28;19932;-49
2023/04/17 01:32:15;;;;;;;;;;;;;;;18.24;54.03;98254.31;2079981;28;19932;-49
2023/04/17 01:33:15;;;;;;;;;;;;;;;18.24;53.89;98254.31;2081668;28;19929;-50
2023/04/17 01:34:17;;;;;;;;;;;;;;;18.24;54.00;98248.94;2084141;28;19929;-49
2023/04/17 01:35:17;;;;;;;;;;;;;;;18.23;54.04;98255.38;2088530;28;20432;-50
2023/04/17 01:36:18;;;;;;;;;;;;;;;18.22;54.12;98246.50;2082768;28;19935;-51
2023/04/17 01:37:19;;;;;;;;;;;;;;;18.23;53.76;98253.50;2083874;28;20620;-52
2023/04/17 01:38:20;;;;;;;;;;;;;;;18.25;54.05;98261.34;2083855;28;19983;-51
2023/04/17 01:39:22;;;;;;;;;;;;;;;18.24;54.05;98259.69;2083360;28;19928;-47
2023/04/17 01:40:24;;;;;;;;;;;;;;;18.24;54.14;98265.06;2082683;28;19924;-54
2023/04/17 01:41:24;;;;;;;;;;;;;;;18.22;53.96;98259.91;2083277;28;21047;-50
2023/04/17 01:42:26;;;;;;;;;;;;;;;18.23;54.10;98258.06;2083755;28;19941;-49
2023/04/17 01:43:26;;;;;;;;;;;;;;;18.25;53.87;98261.34;2083138;28;19933;-48
2023/04/17 01:44:28;;;;;;;;;;;;;;;18.21;53.83;98260.94;2077206;28;20085;-47
2023/04/17 01:45:28;;;;;;;;;;;;;;;18.19;54.01;98262.19;2077789;28;19933;-49
2023/04/17 01:46:30;;;;;;;;;;;;;;;18.21;53.90;98263.63;2077522;28;19925;-48
2023/04/17 01:47:30;;;;;;;;;;;;;;;18.20;53.85;98259.28;2074945;28;19932;-50
2023/04/17 01:48:31;;;;;;;;;;;;;;;18.19;53.54;98259.50;2076599;28;19929;-47
2023/04/17 01:49:32;;;;;;;;;;;;;;;18.19;53.96;98262.19;2073106;28;19928;-52
2023/04/17 01:50:33;;;;;;;;;;;;;;;18.21;53.98;98254.75;2071490;28;19936;-48
2023/04/17 01:51:34;;;;;;;;;;;;;;;18.20;53.86;98258.47;2075250;28;19970;-51
2023/04/17 01:52:36;;;;;;;;;;;;;;;18.20;53.69;98256.59;2078654;28;19932;-49
2023/04/17 01:53:37;;;;;;;;;;;;;;;18.20;54.07;98263.84;2076335;28;19945;-50
2023/04/17 01:54:40;;;;;;;;;;;;;;;18.18;53.70;98260.53;2079907;28;19933;-49
2023/04/17 01:55:41;;;;;;;;;;;;;;;18.18;53.96;98255.16;2076218;28;20456;-52
2023/04/17 01:56:42;;;;;;;;;;;;;;;18.17;53.83;98253.53;2075243;28;19929;-50
2023/04/17 01:57:42;;;;;;;;;;;;;;;18.18;53.55;98257.84;2077928;28;20423;-48
2023/04/17 01:58:44;;;;;;;;;;;;;;;18.18;54.00;98255.16;2076706;28;19933;-46
2023/04/17 01:59:44;;;;;;;;;;;;;;;18.19;54.18;98256.81;2073597;28;19978;-50
2023/04/17 02:00:46;;;;;;;;;;;;;;;18.18;53.93;98255.16;2075669;28;19937;-50
2023/04/17 02:01:46;;;;;;;;;;;;;;;18.17;53.80;98254.34;2074260;28;19937;-49
2023/04/17 02:02:48;;;;;;;;;;;;;;;18.17;54.02;98256.22;2076609;28;19956;-49
2023/04/17 02:03:48;;;;;;;;;;;;;;;18.18;53.85;98263.22;2084595;28;19986;-52
2023/04/17 02:04:50;;;;;;;;;;;;;;;18.16;53.76;98251.88;2084414;28;19982;-52
2023/04/17 02:05:51;;;;;;;;;;;;;;;18.17;53.76;98250.84;2078309;28;19932;-52
2023/04/17 02:06:53;;;;;;;;;;;;;;;18.15;53.95;98251.03;2084680;28;19932;-49
2023/04/17 02:07:53;;;;;;;;;;;;;;;18.16;53.70;98252.69;2083345;28;19990;-48
2023/04/17 02:08:55;;;;;;;;;;;;;;;18.16;53.78;98252.69;2082916;28;19925;-48
2023/04/17 02:09:56;;;;;;;;;;;;;;;18.17;53.60;98248.97;2077057;27;20566;-51
2023/04/17 02:10:58;;;;;;;;;;;;;;;18.16;53.79;98251.88;2085430;28;19933;-50
2023/04/17 02:11:58;;;;;;;;;;;;;;;18.13;54.02;98242.38;2082358;28;19924;-52
2023/04/17 02:13:00;;;;;;;;;;;;;;;18.12;53.94;98247.97;2085667;28;20325;-52
2023/04/17 02:14:00;;;;;;;;;;;;;;;18.13;53.63;98246.91;2084270;28;20032;-51
2023/04/17 02:15:01;;;;;;;;;;;;;;;18.14;54.00;98248.59;2088890;28;20481;-51
2023/04/17 02:16:02;;;;;;;;;;;;;;;18.15;53.98;98252.91;2086147;28;19930;-49
2023/04/17 02:17:04;;;;;;;;;;;;;;;18.14;53.75;98244.03;2087176;28;19928;-50
2023/04/17 02:18:04;;;;;;;;;;;;;;;18.13;53.60;98246.91;2086177;28;20812;-52
2023/04/17 02:19:06;;;;;;;;;;;;;;;18.12;54.00;98239.91;2086129;28;19978;-50
2023/04/17 02:20:07;;;;;;;;;;;;;;;18.12;53.73;98245.28;2086029;28;20017;-49
2023/04/17 02:21:09;;;;;;;;;;;;;;;18.12;53.83;98246.09;2083006;28;19935;-48
2023/04/17 02:22:09;;;;;;;;;;;;;;;18.12;53.71;98245.28;2085264;28;19929;-47
2023/04/17 02:23:11;;;;;;;;;;;;;;;18.12;54.16;98245.28;2084343;28;19987;-49
2023/04/17 02:24:11;;;;;;;;;;;;;;;18.09;53.91;98247.34;2081509;28;19970;-47
2023/04/17 02:25:14;;;;;;;;;;;;;;;18.09;54.01;98246.53;2084147;28;19929;-51
2023/04/17 02:26:15;;;;;;;;;;;;;;;18.09;53.96;98243.84;2080862;28;19936;-47
2023/04/17 02:27:16;;;;;;;;;;;;;;;18.08;53.99;98236.84;2079638;28;19928;-47
2023/04/17 02:28:17;;;;;;;;;;;;;;;18.08;53.97;98251.06;2084428;28;20026;-47
2023/04/17 02:29:18;;;;;;;;;;;;;;;18.08;53.68;98253.75;2085282;28;19928;-52
2023/04/17 02:30:19;;;;;;;;;;;;;;;18.09;54.02;98244.66;2084161;28;20414;-49
2023/04/17 02:31:20;;;;;;;;;;;;;;;18.08;54.09;98248.38;2085984;28;19924;-48
2023/04/17 02:32:21;;;;;;;;;;;;;;;18.11;53.71;98248.97;2080971;28;19933;-53
2023/04/17 02:33:22;;;;;;;;;;;;;;;18.09;53.91;98252.72;2082694;28;19998;-49
2023/04/17 02:34:23;;;;;;;;;;;;;;;18.09;53.75;98252.72;2086272;28;19959;-51
2023/04/17 02:35:25;;;;;;;;;;;;;;;18.08;53.83;98253.75;2084966;28;20473;-50
2023/04/17 02:36:26;;;;;;;;;;;;;;;18.10;53.97;98258.91;2085389;28;19928;-54
2023/04/17 02:37:27;;;;;;;;;;;;;;;18.08;53.85;98251.06;2084448;28;21013;-51
2023/04/17 02:38:29;;;;;;;;;;;;;;;18.08;53.97;98250.25;2082269;28;20645;-50
2023/04/17 02:39:30;;;;;;;;;;;;;;;18.06;53.95;98253.13;2085111;28;20007;-49
2023/04/17 02:40:32;;;;;;;;;;;;;;;18.08;53.60;98251.06;2079392;28;21953;-51
2023/04/17 02:41:33;;;;;;;;;;;;;;;18.07;54.02;98253.94;2081409;28;20012;-46
2023/04/17 02:42:34;;;;;;;;;;;;;;;18.07;53.91;98249.41;2078598;28;20124;-51
2023/04/17 02:43:36;;;;;;;;;;;;;;;18.08;53.67;98250.25;2085397;28;20523;-48
2023/04/17 02:44:36;;;;;;;;;;;;;;;18.08;53.85;98244.88;2085607;28;19955;-51
2023/04/17 02:45:37;;;;;;;;;;;;;;;18.08;53.73;98251.06;2083907;28;19939;-50
2023/04/17 02:46:38;;;;;;;;;;;;;;;18.06;53.87;98247.75;2084459;28;20394;-50
2023/04/17 02:47:39;;;;;;;;;;;;;;;18.05;53.86;98246.13;2083514;28;19975;-51
2023/04/17 02:48:40;;;;;;;;;;;;;;;18.06;53.96;98242.41;2080697;28;19963;-52
2023/04/17 02:49:41;;;;;;;;;;;;;;;18.05;53.74;98246.13;2084833;28;19929;-49
2023/04/17 02:50:42;;;;;;;;;;;;;;;18.04;54.05;98235.59;2083191;28;19925;-51
2023/04/17 02:51:43;;;;;;;;;;;;;;;18.04;53.85;98238.25;2084937;28;19925;-49
2023/04/17 02:52:44;;;;;;;;;;;;;;;18.04;53.64;98241.78;2084399;28;19978;-48
2023/04/17 02:53:47;;;;;;;;;;;;;;;18.03;53.52;98237.44;2080764;28;19998;-53
2023/04/17 02:54:48;;;;;;;;;;;;;;;18.04;53.79;98239.09;2080533;28;19971;-54
2023/04/17 02:55:51;;;;;;;;;;;;;;;18.00;54.00;98237.88;2083429;28;19924;-53
2023/04/17 02:56:51;;;;;;;;;;;;;;;18.01;53.72;98239.50;2082838;28;19925;-52
2023/04/17 02:57:53;;;;;;;;;;;;;;;18.02;53.71;98251.88;2083517;28;19924;-48
2023/04/17 02:58:53;;;;;;;;;;;;;;;18.02;53.87;98248.38;2083277;28;19982;-46
2023/04/17 02:59:55;;;;;;;;;;;;;;;18.01;53.82;98247.56;2080914;28;19936;-53
2023/04/17 03:00:59;;;;;;;;;;;;;;;18.01;53.65;98246.75;2080884;28;19925;-49
2023/04/17 03:02:00;;;;;;;;;;;;;;;17.99;53.72;98246.94;2074099;28;19982;-50
2023/04/17 03:03:02;;;;;;;;;;;;;;;18.02;53.92;98249.19;2083618;28;19928;-49
2023/04/17 03:04:03;;;;;;;;;;;;;;;18.02;53.90;98245.69;2083109;28;19968;-52
2023/04/17 03:05:05;;;;;;;;;;;;;;;18.01;53.70;98249.41;2088188;28;19925;-49
2023/04/17 03:06:07;;;;;;;;;;;;;;;18.01;53.47;98249.41;2083380;28;19933;-51
2023/04/17 03:07:09;;;;;;;;;;;;;;;18.01;53.81;98254.78;2085688;28;19953;-48
2023/04/17 03:08:10;;;;;;;;;;;;;;;18.01;53.95;98250.25;2083854;28;19979;-51
2023/04/17 03:09:13;;;;;;;;;;;;;;;18.02;53.92;98245.69;2081720;28;19933;-49
2023/04/17 03:10:15;;;;;;;;;;;;;;;18.00;53.71;98253.16;2081150;28;19931;-50
2023/04/17 03:11:17;;;;;;;;;;;;;;;17.99;53.82;98246.94;2086463;28;20579;-47
2023/04/17 03:12:18;;;;;;;;;;;;;;;17.99;53.74;98246.94;2081083;28;20045;-50
2023/04/17 03:13:19;;;;;;;;;;;;;;;17.98;54.06;98245.28;2085669;28;19928;-50
2023/04/17 03:14:20;;;;;;;;;;;;;;;17.98;53.82;98249.84;2083274;28;19978;-49
2023/04/17 03:15:21;;;;;;;;;;;;;;;17.98;53.83;98247.16;2085499;28;19925;-48
2023/04/17 03:16:22;;;;;;;;;;;;;;;17.98;54.01;98249.84;2082215;28;19974;-48
2023/04/17 03:17:23;;;;;;;;;;;;;;;17.97;53.82;98240.97;2084895;28;19958;-54
2023/04/17 03:18:24;;;;;;;;;;;;;;;17.97;54.20;98249.03;2080504;28;19932;-49
2023/04/17 03:19:25;;;;;;;;;;;;;;;17.97;54.02;98240.97;2089057;28;20001;-54
2023/04/17 03:20:26;;;;;;;;;;;;;;;17.99;53.95;98241.56;2084990;28;19950;-50
2023/04/17 03:21:27;;;;;;;;;;;;;;;17.97;53.83;98238.28;2086116;28;19986;-49
2023/04/17 03:22:28;;;;;;;;;;;;;;;17.99;54.07;98241.56;2076305;28;19982;-50
2023/04/17 03:23:28;;;;;;;;;;;;;;;18.00;53.77;98239.72;2085634;28;19924;-51
2023/04/17 03:24:30;;;;;;;;;;;;;;;18.01;53.53;98249.41;2083801;28;19998;-49
2023/04/17 03:25:30;;;;;;;;;;;;;;;18.00;53.85;98245.09;2084993;28;19978;-49
2023/04/17 03:26:33;;;;;;;;;;;;;;;17.97;54.01;98249.03;2082646;28;19990;-49
2023/04/17 03:27:34;;;;;;;;;;;;;;;17.98;53.81;98245.28;2083319;28;19928;-47
2023/04/17 03:28:35;;;;;;;;;;;;;;;18.01;53.96;98255.59;2085752;28;20383;-48
2023/04/17 03:29:35;;;;;;;;;;;;;;;18.02;53.81;98248.38;2086296;28;19925;-48
2023/04/17 03:30:37;;;;;;;;;;;;;;;18.00;54.17;98253.97;2084949;28;20398;-50
2023/04/17 03:31:37;;;;;;;;;;;;;;;18.02;53.91;98259.09;2084157;28;20012;-51
2023/04/17 03:32:39;;;;;;;;;;;;;;;18.04;53.88;98259.72;2082443;28;19948;-48
2023/04/17 03:33:40;;;;;;;;;;;;;;;18.07;53.50;98249.41;2082542;28;19932;-51
2023/04/17 03:34:41;;;;;;;;;;;;;;;18.09;53.40;98255.38;2085074;28;19928;-48
2023/04/17 03:35:41;;;;;;;;;;;;;;;18.12;53.13;98256.00;2076782;28;20587;-51
2023/04/17 03:36:43;;;;;;;;;;;;;;;18.19;52.97;98256.81;2080017;28;19970;-52
2023/04/17 03:37:43;;;;;;;;;;;;;;;18.25;52.99;98258.69;2078972;28;19974;-52
2023/04/17 03:38:45;;;;;;;;;;;;;;;18.28;52.72;98247.50;2084625;28;19932;-50
2023/04/17 03:39:45;;;;;;;;;;;;;;;18.35;52.57;98252.84;2087644;28;20433;-49
2023/04/17 03:40:47;;;;;;;;;;;;;;;18.38;52.69;98255.13;2085707;28;19924;-46
2023/04/17 03:41:48;;;;;;;;;;;;;;;18.42;52.61;98251.81;2082791;28;19989;-52
2023/04/17 03:42:50;;;;;;;;;;;;;;;18.49;52.29;98249.91;2081932;28;20045;-49
2023/04/17 03:43:50;;;;;;;;;;;;;;;18.54;52.01;98260.84;2084271;28;19981;-53
2023/04/17 03:44:52;;;;;;;;;;;;;;;18.58;52.19;98257.72;2079681;28;20942;-50
2023/04/17 03:45:52;;;;;;;;;;;;;;;18.63;52.23;98252.53;2085725;28;19978;-51
2023/04/17 03:46:54;;;;;;;;;;;;;;;18.70;51.83;98264.09;2085195;28;20369;-48
2023/04/17 03:47:54;;;;;;;;;;;;;;;18.77;51.91;98254.16;2084133;28;19959;-52
2023/04/17 03:48:56;;;;;;;;;;;;;;;18.81;51.76;98252.72;2079726;28;19933;-52
2023/04/17 03:49:56;;;;;;;;;;;;;;;18.85;51.84;98250.41;2080778;28;20435;-50
2023/04/17 03:50:58;;;;;;;;;;;;;;;18.88;51.78;98250.81;2080100;28;19937;-49
2023/04/17 03:51:58;;;;;;;;;;;;;;;18.95;51.72;98254.28;2080401;28;19936;-51
2023/04/17 03:53:00;;;;;;;;;;;;;;;19.00;51.37;98248.28;2081446;28;19936;-52
2023/04/17 03:54:00;;;;;;;;;;;;;;;19.05;51.29;98255.69;2087471;28;19940;-48
2023/04/17 03:55:02;;;;;;;;;;;;;;;19.08;51.36;98249.88;2082341;28;19932;-52
2023/04/17 03:56:02;;;;;;;;;;;;;;;19.10;51.17;98247.78;2083271;28;19940;-50
2023/04/17 03:57:05;;;;;;;;;;;;;;;19.14;51.17;98247.16;2086775;28;20627;-50
2023/04/17 03:58:06;;;;;;;;;;;;;;;19.19;51.23;98249.19;2084009;28;19959;-47
2023/04/17 03:59:07;;;;;;;;;;;;;;;19.19;51.11;98251.88;2085360;28;19940;-48
2023/04/17 04:00:09;;;;;;;;;;;;;;;19.21;51.24;98255.16;2084662;28;19975;-50
2023/04/17 04:01:11;;;;;;;;;;;;;;;19.23;51.25;98253.09;2087915;28;19976;-50
2023/04/17 04:02:11;;;;;;;;;;;;;;;19.24;50.97;98251.22;2084912;28;20093;-50
2023/04/17 04:03:13;;;;;;;;;;;;;;;19.22;51.18;98254.13;2084060;28;19940;-49
2023/04/17 04:04:13;;;;;;;;;;;;;;;19.28;50.98;98247.91;2085816;28;20015;-51
2023/04/17 04:05:15;;;;;;;;;;;;;;;19.28;51.02;98253.28;2081014;28;19932;-50
2023/04/17 04:06:19;;;;;;;;;;;;;;;19.30;51.16;98258.41;2072312;28;19939;-51
2023/04/17 04:07:20;;;;;;;;;;;;;;;19.30;50.88;98258.41;2081121;28;19964;-51
2023/04/17 04:08:21;;;;;;;;;;;;;;;19.35;50.80;98259.41;2082546;28;19932;-50
2023/04/17 04:09:22;;;;;;;;;;;;;;;19.36;50.77;98266.47;2084303;28;20304;-48
2023/04/17 04:10:23;;;;;;;;;;;;;;;19.36;50.98;98260.22;2084136;28;19985;-50
2023/04/17 04:11:24;;;;;;;;;;;;;;;19.37;51.07;98259.22;2085284;28;20531;-51
2023/04/17 04:12:26;;;;;;;;;;;;;;;19.39;50.80;98263.34;2084490;28;19982;-49
2023/04/17 04:13:27;;;;;;;;;;;;;;;19.40;51.04;98259.59;2085529;28;20307;-52
2023/04/17 04:14:28;;;;;;;;;;;;;;;19.45;50.91;98263.50;2085721;28;20550;-52
2023/04/17 04:15:29;;;;;;;;;;;;;;;19.43;50.75;98261.84;2082927;28;19933;-50
2023/04/17 04:16:30;;;;;;;;;;;;;;;19.42;51.04;98262.91;2078396;28;20015;-50
2023/04/17 04:17:31;;;;;;;;;;;;;;;19.47;50.98;98267.59;2084179;28;20468;-53
2023/04/17 04:18:31;;;;;;;;;;;;;;;19.48;50.91;98265.75;2083960;28;19932;-53
2023/04/17 04:19:33;;;;;;;;;;;;;;;19.50;50.89;98266.34;2084030;28;19929;-52
2023/04/17 04:20:33;;;;;;;;;;;;;;;19.51;50.96;98266.13;2081452;28;19928;-50
2023/04/17 04:21:35;;;;;;;;;;;;;;;19.53;50.81;98257.84;2077961;28;19978;-54
2023/04/17 04:22:36;;;;;;;;;;;;;;;19.52;51.00;98264.28;2083477;28;19936;-46
2023/04/17 04:23:40;;;;;;;;;;;;;;;19.53;50.87;98257.84;2082855;28;19925;-53
2023/04/17 04:24:41;;;;;;;;;;;;;;;19.53;50.87;98260.53;2087071;28;19976;-48
2023/04/17 04:25:42;;;;;;;;;;;;;;;19.54;50.70;98264.88;2086511;28;19932;-52
2023/04/17 04:26:46;;;;;;;;;;;;;;;19.53;50.78;98264.06;2085663;28;19932;-51
2023/04/17 04:27:49;;;;;;;;;;;;;;;19.53;50.83;98257.84;2081659;28;19952;-50
2023/04/17 04:28:49;;;;;;;;;;;;;;;19.54;50.86;98264.88;2083389;28;19936;-51
2023/04/17 04:29:51;;;;;;;;;;;;;;;19.53;50.96;98263.22;2085668;28;19931;-49
2023/04/17 04:30:52;;;;;;;;;;;;;;;19.55;50.82;98263.84;2087197;28;20445;-48
2023/04/17 04:31:54;;;;;;;;;;;;;;;19.57;50.61;98267.13;2086868;28;19987;-47
2023/04/17 04:32:54;;;;;;;;;;;;;;;19.59;50.71;98265.06;2084106;28;19924;-50
2023/04/17 04:33:56;;;;;;;;;;;;;;;19.60;50.71;98264.81;2087790;28;19998;-48
2023/04/17 04:34:57;;;;;;;;;;;;;;;19.60;50.55;98256.75;2081780;28;20056;-52
2023/04/17 04:36:00;;;;;;;;;;;;;;;19.60;50.75;98269.38;2086188;28;19959;-51
2023/04/17 04:37:01;;;;;;;;;;;;;;;19.59;50.92;98262.38;2085096;28;19937;-48
2023/04/17 04:38:03;;;;;;;;;;;;;;;19.63;50.50;98259.00;2085430;28;19928;-53
2023/04/17 04:39:04;;;;;;;;;;;;;;;19.64;50.51;98254.47;2079136;28;19924;-54
2023/04/17 04:40:09;;;;;;;;;;;;;;;19.63;50.53;98264.38;2083275;28;19925;-48
2023/04/17 04:41:10;;;;;;;;;;;;;;;19.62;50.78;98256.53;2086147;28;19924;-53
2023/04/17 04:42:11;;;;;;;;;;;;;;;19.64;50.75;98259.84;2079100;28;19931;-52
2023/04/17 04:43:13;;;;;;;;;;;;;;;19.66;50.42;98260.47;2083725;28;19928;-52
2023/04/17 04:44:14;;;;;;;;;;;;;;;19.64;50.74;98255.28;2083222;28;19974;-49
2023/04/17 04:45:15;;;;;;;;;;;;;;;19.67;50.56;98258.59;2082728;28;20411;-51
2023/04/17 04:46:16;;;;;;;;;;;;;;;19.64;50.74;98259.84;2080007;28;19929;-50
2023/04/17 04:47:18;;;;;;;;;;;;;;;19.66;50.50;98259.66;2084772;28;19925;-51
2023/04/17 04:48:20;;;;;;;;;;;;;;;19.67;50.42;98262.13;2083338;28;20578;-50
2023/04/17 04:49:20;;;;;;;;;;;;;;;19.69;50.70;98262.72;2082373;28;20394;-50
2023/04/17 04:50:22;;;;;;;;;;;;;;;19.66;50.74;98260.47;2086433;28;19982;-50
2023/04/17 04:51:22;;;;;;;;;;;;;;;19.69;50.92;98261.88;2086869;28;20361;-52
2023/04/17 04:52:23;;;;;;;;;;;;;;;19.69;50.45;98259.19;2082949;28;19928;-53
2023/04/17 04:53:24;;;;;;;;;;;;;;;19.68;50.81;98260.25;2085220;28;20387;-49
2023/04/17 04:54:26;;;;;;;;;;;;;;;19.65;50.65;98253.41;2084425;28;19982;-48
2023/04/17 04:55:26;;;;;;;;;;;;;;;19.68;50.60;98254.88;2087479;28;20338;-47
2023/04/17 04:56:28;;;;;;;;;;;;;;;19.69;50.83;98259.19;2085132;28;19936;-52
2023/04/17 04:57:28;;;;;;;;;;;;;;;19.67;50.53;98259.44;2085550;28;19936;-51
2023/04/17 04:58:31;;;;;;;;;;;;;;;19.69;50.87;98264.59;2085842;28;20059;-52
2023/04/17 04:59:31;;;;;;;;;;;;;;;19.66;50.67;98257.78;2085551;28;19974;-51
2023/04/17 05:00:33;;;;;;;;;;;;;;;19.69;50.76;98256.50;2085818;28;19929;-49
2023/04/17 05:01:34;;;;;;;;;;;;;;;19.69;50.57;98265.41;2086396;28;19928;-50
2023/04/17 05:02:36;;;;;;;;;;;;;;;19.70;50.74;98253.63;2082734;27;19928;-51
2023/04/17 05:03:37;;;;;;;;;;;;;;;19.69;50.60;98261.88;2082723;28;20534;-47
2023/04/17 05:04:38;;;;;;;;;;;;;;;19.70;50.90;98260.88;2081599;28;19935;-51
2023/04/17 05:05:39;;;;;;;;;;;;;;;19.71;50.65;98254.44;2082240;28;19936;-54
2023/04/17 05:06:41;;;;;;;;;;;;;;;19.71;50.82;98263.31;2083386;28;19936;-49
2023/04/17 05:07:41;;;;;;;;;;;;;;;19.72;50.90;98253.38;2088400;28;19925;-49
2023/04/17 05:08:43;;;;;;;;;;;;;;;19.73;50.62;98263.13;2086259;28;20327;-53
2023/04/17 05:09:44;;;;;;;;;;;;;;;19.71;50.82;98266.00;2080771;28;19932;-52
2023/04/17 05:10:45;;;;;;;;;;;;;;;19.72;50.81;98269.53;2080716;28;20508;-51
2023/04/17 05:11:46;;;;;;;;;;;;;;;19.71;50.81;98265.19;2086416;28;19928;-48
2023/04/17 05:12:47;;;;;;;;;;;;;;;19.71;50.83;98274.09;2082412;28;20040;-54
2023/04/17 05:13:49;;;;;;;;;;;;;;;19.71;50.39;98274.09;2081702;28;19954;-51
2023/04/17 05:14:50;;;;;;;;;;;;;;;19.73;50.83;98272.00;2083846;28;19978;-52
2023/04/17 05:15:51;;;;;;;;;;;;;;;19.74;50.75;98270.13;2086174;28;20470;-50
2023/04/17 05:16:54;;;;;;;;;;;;;;;19.74;50.83;98270.13;2085454;28;20005;-52
2023/04/17 05:17:54;;;;;;;;;;;;;;;19.73;50.74;98269.31;2084821;28;19936;-53
2023/04/17 05:18:56;;;;;;;;;;;;;;;19.74;50.68;98273.66;2082997;28;20493;-50